createdAt,value
2023-01-21T00:00:45.780Z,99.60
2023-01-21T00:03:13.110Z,99.50
2023-01-21T00:05:40.008Z,99.50
2023-01-21T00:08:07.051Z,99.70
2023-01-21T00:10:33.986Z,99.90
2023-01-21T00:13:01.044Z,99.90
2023-01-21T00:15:27.925Z,99.90
2023-01-21T00:17:55.214Z,99.70
2023-01-21T00:20:22.284Z,99.70
2023-01-21T00:22:49.178Z,99.90
2023-01-21T00:25:16.101Z,99.50
2023-01-21T00:27:43.125Z,99.80
2023-01-21T00:30:10.850Z,99.60
2023-01-21T00:32:38.031Z,99.40
2023-01-21T00:35:06.422Z,99.50
2023-01-21T00:37:34.003Z,99.50
2023-01-21T00:40:01.689Z,99.10
2023-01-21T00:42:28.924Z,98.90
2023-01-21T00:44:57.497Z,98.90
2023-01-21T00:47:24.839Z,99.20
2023-01-21T00:49:51.773Z,99.10
2023-01-21T00:52:18.758Z,99.10
2023-01-21T00:54:45.633Z,99.20
2023-01-21T00:57:13.951Z,98.80
2023-01-21T00:59:41.037Z,98.80
2023-01-21T01:02:08.420Z,98.80
2023-01-21T01:04:35.248Z,98.80
2023-01-21T01:07:02.278Z,99.00
2023-01-21T01:09:29.349Z,98.60
2023-01-21T01:11:56.488Z,98.70
2023-01-21T01:14:23.608Z,98.80
2023-01-21T01:16:50.554Z,98.70
2023-01-21T01:19:18.038Z,98.70
2023-01-21T01:21:44.936Z,98.40
2023-01-21T01:24:12.032Z,98.80
2023-01-21T01:26:41.847Z,98.50
2023-01-21T01:29:11.411Z,98.60
2023-01-21T01:31:38.416Z,98.60
2023-01-21T01:34:05.260Z,98.40
2023-01-21T01:36:32.194Z,98.40
2023-01-21T01:38:59.239Z,98.20
2023-01-21T01:41:27.612Z,98.50
2023-01-21T01:43:57.479Z,98.50
2023-01-21T01:46:26.010Z,98.00
2023-01-21T01:48:55.508Z,98.20
2023-01-21T01:51:26.471Z,98.40
2023-01-21T01:53:53.536Z,98.00
2023-01-21T01:56:20.651Z,98.20
2023-01-21T01:58:48.351Z,98.00
2023-01-21T02:01:15.268Z,98.10
2023-01-21T02:03:46.137Z,98.50
2023-01-21T02:06:14.741Z,98.50
2023-01-21T02:08:42.854Z,98.30
2023-01-21T02:11:13.930Z,98.10
2023-01-21T02:13:42.289Z,98.00
2023-01-21T02:16:21.591Z,98.00
2023-01-21T02:18:49.930Z,98.00
2023-01-21T02:21:17.177Z,98.00
2023-01-21T02:24:23.148Z,97.90
2023-01-21T02:26:53.373Z,97.90
2023-01-21T02:29:46.435Z,98.30
2023-01-21T02:32:45.166Z,98.40
2023-01-21T02:35:15.853Z,98.40
2023-01-21T02:38:02.460Z,98.20
2023-01-21T02:40:47.463Z,98.10
2023-01-21T02:43:18.422Z,98.60
2023-01-21T02:45:59.744Z,98.00
2023-01-21T02:48:26.851Z,98.10
2023-01-21T02:50:55.457Z,98.00
2023-01-21T02:53:32.771Z,98.10
2023-01-21T02:56:11.905Z,98.00
2023-01-21T02:58:44.168Z,97.70
2023-01-21T03:01:11.565Z,98.60
2023-01-21T03:03:59.180Z,98.60
2023-01-21T03:06:36.535Z,98.80
2023-01-21T03:09:22.900Z,99.10
2023-01-21T03:12:00.077Z,99.50
2023-01-21T03:15:01.315Z,99.20
2023-01-21T03:17:52.985Z,99.40
2023-01-21T03:20:34.782Z,99.20
2023-01-21T03:23:04.094Z,99.10
2023-01-21T03:25:32.104Z,99.10
2023-01-21T03:28:00.714Z,99.00
2023-01-21T03:30:28.832Z,99.10
2023-01-21T03:32:57.506Z,99.10
2023-01-21T03:35:26.768Z,99.10
2023-01-21T03:38:08.942Z,98.80
2023-01-21T03:40:38.199Z,98.60
2023-01-21T03:43:05.172Z,98.50
2023-01-21T03:45:41.617Z,98.70
2023-01-21T03:48:14.086Z,98.80
2023-01-21T03:50:42.998Z,98.40
2023-01-21T03:53:10.024Z,98.60
2023-01-21T03:55:36.950Z,98.60
2023-01-21T03:58:03.854Z,99.00
2023-01-21T04:00:30.696Z,98.40
2023-01-21T04:02:57.597Z,98.20
2023-01-21T04:05:24.479Z,98.20
2023-01-21T04:07:51.351Z,98.20
2023-01-21T04:10:18.709Z,98.20
2023-01-21T04:12:45.868Z,98.40
2023-01-21T04:15:12.745Z,98.40
2023-01-21T04:17:39.647Z,98.70
2023-01-21T04:20:07.148Z,98.80
2023-01-21T04:22:33.994Z,98.60
2023-01-21T04:25:00.882Z,98.60
2023-01-21T04:27:27.743Z,98.80
2023-01-21T04:29:54.950Z,98.90
2023-01-21T04:32:21.986Z,98.90
2023-01-21T04:34:48.812Z,98.60
2023-01-21T04:37:15.774Z,98.80
2023-01-21T04:39:42.623Z,98.90
2023-01-21T04:42:09.494Z,98.80
2023-01-21T04:44:36.303Z,98.90
2023-01-21T04:47:03.259Z,99.10
2023-01-21T04:49:30.130Z,98.90
2023-01-21T04:51:57.065Z,99.20
2023-01-21T04:54:23.987Z,99.30
2023-01-21T04:56:50.818Z,99.10
2023-01-21T04:59:17.824Z,99.20
2023-01-21T05:01:44.635Z,99.20
2023-01-21T05:04:11.511Z,99.40
2023-01-21T05:06:38.404Z,99.90
2023-01-21T05:09:05.420Z,99.60
2023-01-21T05:11:32.264Z,99.30
2023-01-21T05:13:59.098Z,99.40
2023-01-21T05:16:26.064Z,99.70
2023-01-21T05:18:52.955Z,99.90
2023-01-21T05:21:19.813Z,99.90
2023-01-21T05:23:46.662Z,99.80
2023-01-21T05:26:13.621Z,99.90
2023-01-21T05:28:43.491Z,99.90
2023-01-21T05:31:11.499Z,99.90
2023-01-21T05:33:38.560Z,99.90
2023-01-21T05:36:15.540Z,99.90
2023-01-21T05:38:44.464Z,99.90
2023-01-21T05:41:21.400Z,99.90
2023-01-21T05:43:48.870Z,99.90
2023-01-21T05:46:22.126Z,99.90
2023-01-21T05:48:54.934Z,99.90
2023-01-21T05:51:24.042Z,99.90
2023-01-21T05:54:03.419Z,99.90
2023-01-21T05:56:32.636Z,99.90
2023-01-21T05:58:59.561Z,99.90
2023-01-21T06:01:26.480Z,99.90
2023-01-21T06:03:53.388Z,99.90
2023-01-21T06:06:20.933Z,99.90
2023-01-21T06:08:47.817Z,99.90
2023-01-21T06:11:14.698Z,99.90
2023-01-21T06:13:41.521Z,99.90
2023-01-21T06:16:08.608Z,99.90
2023-01-21T06:18:36.731Z,99.90
2023-01-21T06:21:03.785Z,99.90
2023-01-21T06:23:30.663Z,99.90
2023-01-21T06:26:00.959Z,99.90
2023-01-21T06:28:28.057Z,99.90
2023-01-21T06:30:55.076Z,99.90
2023-01-21T06:33:21.976Z,99.90
2023-01-21T06:35:48.891Z,99.90
2023-01-21T06:38:15.743Z,99.90
2023-01-21T06:40:43.417Z,99.90
2023-01-21T06:43:10.296Z,99.90
2023-01-21T06:45:37.200Z,99.90
2023-01-21T06:48:04.159Z,99.90
2023-01-21T06:50:31.062Z,99.90
2023-01-21T06:52:57.939Z,99.90
2023-01-21T06:55:24.811Z,99.90
2023-01-21T06:57:51.674Z,99.90
2023-01-21T07:00:19.374Z,99.90
2023-01-21T07:02:46.486Z,99.90
2023-01-21T07:05:15.353Z,99.90
2023-01-21T07:07:42.462Z,99.90
2023-01-21T07:10:09.727Z,99.90
2023-01-21T07:12:36.676Z,99.90
2023-01-21T07:15:03.791Z,99.90
2023-01-21T07:17:30.640Z,99.90
2023-01-21T07:19:57.549Z,99.90
2023-01-21T07:22:24.392Z,99.90
2023-01-21T07:24:51.316Z,99.90
2023-01-21T07:27:18.223Z,99.90
2023-01-21T07:29:45.055Z,99.90
2023-01-21T07:32:11.905Z,99.90
2023-01-21T07:34:38.783Z,99.90
2023-01-21T07:37:05.713Z,99.90
2023-01-21T07:39:32.756Z,99.90
2023-01-21T07:41:59.787Z,99.90
2023-01-21T07:44:27.074Z,99.90
2023-01-21T07:46:53.930Z,99.90
2023-01-21T07:49:20.815Z,99.90
2023-01-21T07:51:47.967Z,99.90
2023-01-21T07:54:15.396Z,99.90
2023-01-21T07:56:42.256Z,99.90
2023-01-21T07:59:10.105Z,99.90
2023-01-21T08:01:37.119Z,99.90
2023-01-21T08:04:04.217Z,99.90
2023-01-21T08:06:31.106Z,99.90
2023-01-21T08:08:57.967Z,99.90
2023-01-21T08:11:25.113Z,99.90
2023-01-21T08:13:51.990Z,99.90
2023-01-21T08:16:19.024Z,99.90
2023-01-21T08:18:45.926Z,99.90
2023-01-21T08:21:12.824Z,99.90
2023-01-21T08:23:39.702Z,99.90
2023-01-21T08:26:06.881Z,99.90
2023-01-21T08:28:34.291Z,99.90
2023-01-21T08:31:08.691Z,99.90
2023-01-21T08:33:35.808Z,99.90
2023-01-21T08:36:06.669Z,99.90
2023-01-21T08:38:34.086Z,99.90
2023-01-21T08:41:01.000Z,99.90
2023-01-21T08:43:28.043Z,99.90
2023-01-21T08:45:59.423Z,99.90
2023-01-21T08:48:26.330Z,99.90
2023-01-21T08:50:53.236Z,99.90
2023-01-21T08:53:20.152Z,99.90
2023-01-21T08:55:47.038Z,99.90
2023-01-21T08:58:13.971Z,99.90
2023-01-21T09:00:42.013Z,99.90
2023-01-21T09:03:08.921Z,99.90
2023-01-21T09:05:35.959Z,99.90
2023-01-21T09:08:02.881Z,99.90
2023-01-21T09:10:48.725Z,99.90
2023-01-21T09:13:16.548Z,99.90
2023-01-21T09:15:43.921Z,99.90
2023-01-21T09:18:11.239Z,99.90
2023-01-21T09:20:39.219Z,99.90
2023-01-21T09:23:24.279Z,99.90
2023-01-21T09:26:00.656Z,99.90
2023-01-21T09:28:27.558Z,99.90
2023-01-21T09:30:59.031Z,99.90
2023-01-21T09:33:26.715Z,99.90
2023-01-21T09:35:57.815Z,99.90
2023-01-21T09:38:25.487Z,99.90
2023-01-21T09:40:52.794Z,99.80
2023-01-21T09:43:32.098Z,99.90
2023-01-21T09:46:01.149Z,99.90
2023-01-21T09:48:35.498Z,99.90
2023-01-21T09:51:04.940Z,99.90
2023-01-21T09:53:34.558Z,99.50
2023-01-21T09:56:02.305Z,99.20
2023-01-21T09:58:42.149Z,99.00
2023-01-21T10:01:29.306Z,98.30
2023-01-21T10:04:00.299Z,98.20
2023-01-21T10:06:27.172Z,98.20
2023-01-21T10:08:54.077Z,97.10
2023-01-21T10:11:23.959Z,97.20
2023-01-21T10:13:56.809Z,97.30
2023-01-21T10:16:29.883Z,97.10
2023-01-21T10:18:58.377Z,96.70
2023-01-21T10:21:46.361Z,96.20
2023-01-21T10:24:15.487Z,96.30
2023-01-21T10:26:43.541Z,95.50
2023-01-21T10:29:15.299Z,95.90
2023-01-21T10:31:44.652Z,95.90
2023-01-21T10:34:15.126Z,96.20
2023-01-21T10:36:45.031Z,96.20
2023-01-21T10:39:30.378Z,96.10
2023-01-21T10:42:08.395Z,95.00
2023-01-21T10:44:58.171Z,94.70
2023-01-21T10:47:28.133Z,94.50
2023-01-21T10:50:01.240Z,94.70
2023-01-21T10:52:37.226Z,94.50
2023-01-21T10:55:33.560Z,95.10
2023-01-21T10:58:05.038Z,95.10
2023-01-21T11:00:34.110Z,94.80
2023-01-21T11:03:02.621Z,94.60
2023-01-21T11:05:30.583Z,95.00
2023-01-21T11:07:57.821Z,94.80
2023-01-21T11:10:26.185Z,94.80
2023-01-21T11:12:56.726Z,94.80
2023-01-21T11:15:24.233Z,95.00
2023-01-21T11:17:56.774Z,94.90
2023-01-21T11:20:35.340Z,94.90
2023-01-21T11:23:04.347Z,95.00
2023-01-21T11:25:35.794Z,94.60
2023-01-21T11:28:03.654Z,94.30
2023-01-21T11:30:50.514Z,93.80
2023-01-21T11:33:27.570Z,93.80
2023-01-21T11:35:55.436Z,93.90
2023-01-21T11:38:31.915Z,94.00
2023-01-21T11:41:08.776Z,93.70
2023-01-21T11:43:40.887Z,93.70
2023-01-21T11:46:26.245Z,93.70
2023-01-21T11:49:16.640Z,93.60
2023-01-21T11:51:45.075Z,93.70
2023-01-21T11:54:16.200Z,93.90
2023-01-21T11:56:52.252Z,93.30
2023-01-21T11:59:28.368Z,93.50
2023-01-21T12:02:00.208Z,93.40
2023-01-21T12:04:27.091Z,94.30
2023-01-21T12:06:58.117Z,93.50
2023-01-21T12:09:25.167Z,93.50
2023-01-21T12:12:10.540Z,93.40
2023-01-21T12:14:58.130Z,93.30
2023-01-21T12:17:41.387Z,93.10
2023-01-21T12:20:08.347Z,93.70
2023-01-21T12:22:50.586Z,93.20
2023-01-21T12:25:21.776Z,93.30
2023-01-21T12:27:51.671Z,93.20
2023-01-21T12:30:48.100Z,93.10
2023-01-21T12:33:17.991Z,93.10
2023-01-21T12:35:51.498Z,93.40
2023-01-21T12:38:20.879Z,93.50
2023-01-21T12:41:01.648Z,93.90
2023-01-21T12:43:43.312Z,93.50
2023-01-21T12:46:22.417Z,93.10
2023-01-21T12:48:57.125Z,93.60
2023-01-21T12:51:28.011Z,93.60
2023-01-21T12:54:13.735Z,93.80
2023-01-21T12:56:40.624Z,93.60
2023-01-21T12:59:07.432Z,93.90
2023-01-21T13:01:40.778Z,93.40
2023-01-21T13:04:22.900Z,93.90
2023-01-21T13:06:56.808Z,93.60
2023-01-21T13:09:23.715Z,93.70
2023-01-21T13:11:56.678Z,93.90
2023-01-21T13:14:59.107Z,93.60
2023-01-21T13:17:33.920Z,93.50
2023-01-21T13:20:00.948Z,93.80
2023-01-21T13:22:41.277Z,93.90
2023-01-21T13:25:23.510Z,94.00
2023-01-21T13:27:50.359Z,94.30
2023-01-21T13:30:20.423Z,93.80
2023-01-21T13:32:52.215Z,93.70
2023-01-21T13:35:19.726Z,94.00
2023-01-21T13:37:55.850Z,94.00
2023-01-21T13:40:39.389Z,94.10
2023-01-21T13:43:25.195Z,94.70
2023-01-21T13:45:55.194Z,93.80
2023-01-21T13:48:28.416Z,94.00
2023-01-21T13:51:00.064Z,94.30
2023-01-21T13:53:36.328Z,94.50
2023-01-21T13:56:03.610Z,94.20
2023-01-21T13:58:43.108Z,94.50
2023-01-21T14:01:13.875Z,94.40
2023-01-21T14:03:50.200Z,94.50
2023-01-21T14:06:32.332Z,95.00
2023-01-21T14:09:04.855Z,94.60
2023-01-21T14:11:35.278Z,94.10
2023-01-21T14:14:08.317Z,94.10
2023-01-21T14:16:59.488Z,94.50
2023-01-21T14:19:41.687Z,94.80
2023-01-21T14:22:18.133Z,94.80
2023-01-21T14:24:45.118Z,94.80
2023-01-21T14:27:18.187Z,94.80
2023-01-21T14:29:51.919Z,94.80
2023-01-21T14:32:23.787Z,94.50
2023-01-21T14:34:50.862Z,95.30
2023-01-21T14:37:20.490Z,95.00
2023-01-21T14:40:13.782Z,94.90
2023-01-21T14:42:43.885Z,94.80
2023-01-21T14:45:13.085Z,94.90
2023-01-21T14:47:40.066Z,94.90
2023-01-21T14:50:08.303Z,95.00
2023-01-21T14:52:40.313Z,95.30
2023-01-21T14:55:30.034Z,95.50
2023-01-21T14:57:57.744Z,95.70
2023-01-21T15:00:30.638Z,95.90
2023-01-21T15:03:16.716Z,96.00
2023-01-21T15:05:45.315Z,96.20
2023-01-21T15:08:17.345Z,96.30
2023-01-21T15:10:50.036Z,96.50
2023-01-21T15:13:27.395Z,96.50
2023-01-21T15:16:06.240Z,96.60
2023-01-21T15:18:38.248Z,96.80
2023-01-21T15:21:24.077Z,97.20
2023-01-21T15:23:51.154Z,98.10
2023-01-21T15:26:19.561Z,98.00
2023-01-21T15:28:49.516Z,98.30
2023-01-21T15:31:23.732Z,98.50
2023-01-21T15:33:56.544Z,98.60
2023-01-21T15:36:25.993Z,98.60
2023-01-21T15:38:54.209Z,98.80
2023-01-21T15:41:23.818Z,98.90
2023-01-21T15:43:55.574Z,99.00
2023-01-21T15:46:40.948Z,99.40
2023-01-21T15:49:26.728Z,99.80
2023-01-21T15:52:09.115Z,99.90
2023-01-21T15:54:42.439Z,99.90
2023-01-21T15:57:21.771Z,99.90
2023-01-21T15:59:59.158Z,99.90
2023-01-21T16:02:32.437Z,99.90
2023-01-21T16:05:18.688Z,99.90
2023-01-21T16:08:22.626Z,99.90
2023-01-21T16:10:58.749Z,99.90
2023-01-21T16:13:40.934Z,99.70
2023-01-21T16:16:17.191Z,99.50
2023-01-21T16:18:53.383Z,99.50
2023-01-21T16:21:22.951Z,99.30
2023-01-21T16:23:52.658Z,99.30
2023-01-21T16:26:27.737Z,99.30
2023-01-21T16:28:55.088Z,99.50
2023-01-21T16:31:22.511Z,99.50
2023-01-21T16:33:50.359Z,99.80
2023-01-21T16:36:18.389Z,99.70
2023-01-21T16:38:47.068Z,99.70
2023-01-21T16:41:14.330Z,99.50
2023-01-21T16:43:49.648Z,99.60
2023-01-21T16:46:25.640Z,99.50
2023-01-21T16:48:54.422Z,99.50
2023-01-21T16:51:28.944Z,99.40
2023-01-21T16:54:15.051Z,99.50
2023-01-21T16:57:02.854Z,99.80
2023-01-21T16:59:37.060Z,99.90
2023-01-21T17:02:05.402Z,99.80
2023-01-21T17:04:32.606Z,99.90
2023-01-21T17:06:59.641Z,99.90
2023-01-21T17:09:29.918Z,99.90
2023-01-21T17:11:58.415Z,99.90
2023-01-21T17:14:27.724Z,99.90
2023-01-21T17:16:56.635Z,99.90
2023-01-21T17:19:25.736Z,99.90
2023-01-21T17:21:55.743Z,99.90
2023-01-21T17:24:25.514Z,99.90
2023-01-21T17:26:55.341Z,99.90
2023-01-21T17:29:23.911Z,99.90
2023-01-21T17:31:56.014Z,99.90
2023-01-21T17:34:30.855Z,99.90
2023-01-21T17:36:58.999Z,99.90
2023-01-21T17:39:45.437Z,99.90
2023-01-21T17:42:15.598Z,99.90
2023-01-21T17:44:46.467Z,99.90
2023-01-21T17:47:24.796Z,99.90
2023-01-21T17:49:59.559Z,99.90
2023-01-21T17:52:27.378Z,99.90
2023-01-21T17:55:10.792Z,99.90
2023-01-21T17:57:38.096Z,99.90
2023-01-21T18:00:24.660Z,99.90
2023-01-21T18:02:52.537Z,99.90
2023-01-21T18:05:19.922Z,99.90
2023-01-21T18:07:48.679Z,99.90
2023-01-21T18:10:20.629Z,99.90
2023-01-21T18:12:51.155Z,99.90
2023-01-21T18:15:21.272Z,99.90
2023-01-21T18:17:51.664Z,99.90
2023-01-21T18:20:20.703Z,99.90
2023-01-21T18:22:48.563Z,99.90
2023-01-21T18:25:16.467Z,99.90
2023-01-21T18:27:47.140Z,99.90
2023-01-21T18:30:32.871Z,99.90
2023-01-21T18:33:00.178Z,99.90
2023-01-21T18:35:28.992Z,99.90
2023-01-21T18:37:56.565Z,99.60
2023-01-21T18:40:25.040Z,99.20
2023-01-21T18:42:55.359Z,99.30
2023-01-21T18:45:27.167Z,99.30
2023-01-21T18:47:55.516Z,99.10
2023-01-21T18:50:27.454Z,99.10
2023-01-21T18:52:55.954Z,99.10
2023-01-21T18:55:27.145Z,98.90
2023-01-21T18:57:55.912Z,98.90
2023-01-21T19:00:26.807Z,98.20
2023-01-21T19:02:55.139Z,98.70
2023-01-21T19:05:27.165Z,98.80
2023-01-21T19:07:54.867Z,99.10
2023-01-21T19:10:23.848Z,99.40
2023-01-21T19:12:50.890Z,99.30
2023-01-21T19:15:19.756Z,99.00
2023-01-21T19:17:48.098Z,99.10
2023-01-21T19:20:17.242Z,99.50
2023-01-21T19:22:45.165Z,99.60
2023-01-21T19:25:13.370Z,99.40
2023-01-21T19:27:44.536Z,99.50
2023-01-21T19:30:19.425Z,99.30
2023-01-21T19:32:47.265Z,99.30
2023-01-21T19:35:15.755Z,99.00
2023-01-21T19:37:51.442Z,99.00
2023-01-21T19:40:20.599Z,99.30
2023-01-21T19:42:48.523Z,99.10
2023-01-21T19:45:16.539Z,99.10
2023-01-21T19:47:44.853Z,99.60
2023-01-21T19:50:20.485Z,99.70
2023-01-21T19:52:50.281Z,99.60
2023-01-21T19:55:19.025Z,99.90
2023-01-21T19:57:47.035Z,99.90
2023-01-21T20:00:25.578Z,99.90
2023-01-21T20:02:53.154Z,99.90
2023-01-21T20:05:22.883Z,99.90
2023-01-21T20:07:54.093Z,99.80
2023-01-21T20:10:22.717Z,99.00
2023-01-21T20:12:50.147Z,99.00
2023-01-21T20:15:19.059Z,99.10
2023-01-21T20:17:49.132Z,99.00
2023-01-21T20:20:18.552Z,98.60
2023-01-21T20:22:50.184Z,99.00
2023-01-21T20:25:19.521Z,99.00
2023-01-21T20:27:49.328Z,98.60
2023-01-21T20:30:18.651Z,98.30
2023-01-21T20:32:49.008Z,98.50
2023-01-21T20:35:17.583Z,98.40
2023-01-21T20:37:48.207Z,98.30
2023-01-21T20:40:24.902Z,98.60
2023-01-21T20:42:53.465Z,98.40
2023-01-21T20:45:22.609Z,98.30
2023-01-21T20:47:51.720Z,98.60
2023-01-21T20:50:23.514Z,98.40
2023-01-21T20:52:53.039Z,98.50
2023-01-21T20:55:21.660Z,98.40
2023-01-21T20:57:49.779Z,98.10
2023-01-21T21:00:19.163Z,98.60
2023-01-21T21:02:46.601Z,98.50
2023-01-21T21:05:14.617Z,98.40
2023-01-21T21:07:42.357Z,98.40
2023-01-21T21:10:32.035Z,98.50
2023-01-21T21:13:01.141Z,98.60
2023-01-21T21:15:32.353Z,98.10
2023-01-21T21:17:59.828Z,98.30
2023-01-21T21:20:27.502Z,98.30
2023-01-21T21:22:54.519Z,98.00
2023-01-21T21:25:22.514Z,98.20
2023-01-21T21:27:51.818Z,98.30
2023-01-21T21:30:20.560Z,98.40
2023-01-21T21:32:47.623Z,98.40
2023-01-21T21:35:25.128Z,98.70
2023-01-21T21:37:53.072Z,98.40
2023-01-21T21:40:21.830Z,98.60
2023-01-21T21:43:07.473Z,98.30
2023-01-21T21:45:36.410Z,98.00
2023-01-21T21:48:22.840Z,98.10
2023-01-21T21:50:56.586Z,98.40
2023-01-21T21:53:23.946Z,98.10
2023-01-21T21:55:50.837Z,98.30
2023-01-21T21:58:17.790Z,98.30
2023-01-21T22:00:44.870Z,98.40
2023-01-21T22:03:12.832Z,98.40
2023-01-21T22:05:40.066Z,98.30
2023-01-21T22:08:08.512Z,98.40
2023-01-21T22:10:35.480Z,98.40
2023-01-21T22:13:02.424Z,98.40
2023-01-21T22:15:29.347Z,98.50
2023-01-21T22:17:56.334Z,98.40
2023-01-21T22:20:23.303Z,98.50
2023-01-21T22:22:50.165Z,98.50
2023-01-21T22:25:17.523Z,98.40
2023-01-21T22:27:44.950Z,98.30
2023-01-21T22:30:12.389Z,98.30
2023-01-21T22:32:39.250Z,98.20
2023-01-21T22:35:06.322Z,98.20
2023-01-21T22:37:33.202Z,98.30
2023-01-21T22:40:00.119Z,98.20
2023-01-21T22:42:26.989Z,98.20
2023-01-21T22:44:53.880Z,98.20
2023-01-21T22:47:20.748Z,98.80
2023-01-21T22:49:49.336Z,98.20
2023-01-21T22:52:16.282Z,98.10
2023-01-21T22:54:43.162Z,98.20
2023-01-21T22:57:10.063Z,98.30
2023-01-21T22:59:36.963Z,98.30
2023-01-21T23:02:03.888Z,98.50
2023-01-21T23:04:30.783Z,98.60
2023-01-21T23:06:57.714Z,98.50
2023-01-21T23:09:24.763Z,98.40
2023-01-21T23:11:52.768Z,98.50
2023-01-21T23:14:20.130Z,98.30
2023-01-21T23:16:47.103Z,98.30
2023-01-21T23:19:14.089Z,98.40
2023-01-21T23:21:41.230Z,98.40
2023-01-21T23:24:08.410Z,98.50
2023-01-21T23:26:35.350Z,98.70
2023-01-21T23:29:02.267Z,98.80
2023-01-21T23:31:29.228Z,98.40
2023-01-21T23:33:56.384Z,98.50
2023-01-21T23:36:23.366Z,98.40
2023-01-21T23:38:50.222Z,98.50
2023-01-21T23:41:17.211Z,98.40
2023-01-21T23:43:44.342Z,98.40
2023-01-21T23:46:16.343Z,98.30
2023-01-21T23:48:43.631Z,98.10
2023-01-21T23:51:12.647Z,98.20
2023-01-21T23:53:39.575Z,98.30
2023-01-21T23:56:07.920Z,98.20
2023-01-21T23:58:34.771Z,98.10
